Terminal Aerodrome Forecast
Issued by NWS

Home | Current Version | Previous Version | Text Only | Print | Product List | Glossary On
Versions: 1 2 3 4 5 6 7 8 9 10 11 12 13
000
FTUS45 KTFX 311100
TAFLWT
TAF
KLWT 311136Z 3112/0112 27008KT P6SM SCT060 BKN120
     FM311500 31011KT P6SM VCSH SCT003 BKN010
     FM311800 32014G22KT 2SM -SN BLSN VV003
     FM010200 34010KT P6SM VCSH OVC009
     FM010700 VRB05KT P6SM SCT010 BKN020=

USA.gov is the U.S. government's official web portal to all federal, state and local government web resources and services.